sensor_id;sensor_type;location;lat;lon;timestamp;P1;durP1;ratioP1;P2;durP2;ratioP2
18274;SDS011;19470;49.322;7.218;2023-05-20T00:02:10;917.13;;;849.72;;
18274;SDS011;19470;49.322;7.218;2023-05-20T00:04:36;937.13;;;865.25;;
18274;SDS011;19470;49.322;7.218;2023-05-20T00:07:04;914.88;;;844.53;;
18274;SDS011;19470;49.322;7.218;2023-05-20T00:09:32;880.63;;;816.38;;
18274;SDS011;19470;49.322;7.218;2023-05-20T00:11:59;920.78;;;853.30;;
18274;SDS011;19470;49.322;7.218;2023-05-20T00:14:25;924.03;;;853.78;;
18274;SDS011;19470;49.322;7.218;2023-05-20T00:16:52;950.05;;;877.83;;
18274;SDS011;19470;49.322;7.218;2023-05-20T00:19:30;947.70;;;874.83;;
18274;SDS011;19470;49.322;7.218;2023-05-20T00:21:57;925.90;;;856.10;;
18274;SDS011;19470;49.322;7.218;2023-05-20T00:24:23;934.72;;;863.92;;
18274;SDS011;19470;49.322;7.218;2023-05-20T00:26:51;920.47;;;850.95;;
18274;SDS011;19470;49.322;7.218;2023-05-20T00:29:20;902.58;;;835.25;;
18274;SDS011;19470;49.322;7.218;2023-05-20T00:31:53;914.03;;;847.42;;
18274;SDS011;19470;49.322;7.218;2023-05-20T00:34:19;964.03;;;889.03;;
18274;SDS011;19470;49.322;7.218;2023-05-20T00:36:46;932.08;;;863.25;;
18274;SDS011;19470;49.322;7.218;2023-05-20T00:39:12;938.45;;;865.20;;
18274;SDS011;19470;49.322;7.218;2023-05-20T00:41:39;892.17;;;826.22;;
18274;SDS011;19470;49.322;7.218;2023-05-20T00:44:06;909.03;;;842.15;;
18274;SDS011;19470;49.322;7.218;2023-05-20T00:46:34;979.47;;;904.33;;
18274;SDS011;19470;49.322;7.218;2023-05-20T00:49:00;943.42;;;873.17;;
18274;SDS011;19470;49.322;7.218;2023-05-20T00:51:27;928.75;;;858.15;;
18274;SDS011;19470;49.322;7.218;2023-05-20T00:53:54;888.13;;;825.00;;
18274;SDS011;19470;49.322;7.218;2023-05-20T00:56:21;905.75;;;842.28;;
18274;SDS011;19470;49.322;7.218;2023-05-20T00:58:48;928.28;;;860.70;;
18274;SDS011;19470;49.322;7.218;2023-05-20T01:01:17;930.72;;;860.90;;
18274;SDS011;19470;49.322;7.218;2023-05-20T01:03:43;918.15;;;851.75;;
18274;SDS011;19470;49.322;7.218;2023-05-20T01:06:10;854.40;;;792.50;;
18274;SDS011;19470;49.322;7.218;2023-05-20T01:08:36;886.50;;;824.08;;
18274;SDS011;19470;49.322;7.218;2023-05-20T01:11:05;886.63;;;824.38;;
18274;SDS011;19470;49.322;7.218;2023-05-20T01:13:35;856.50;;;797.90;;
18274;SDS011;19470;49.322;7.218;2023-05-20T01:16:04;862.72;;;801.72;;
18274;SDS011;19470;49.322;7.218;2023-05-20T01:18:35;878.45;;;817.22;;
18274;SDS011;19470;49.322;7.218;2023-05-20T01:21:05;856.80;;;797.22;;
18274;SDS011;19470;49.322;7.218;2023-05-20T01:23:38;873.80;;;813.35;;
18274;SDS011;19470;49.322;7.218;2023-05-20T01:26:05;835.28;;;778.25;;
18274;SDS011;19470;49.322;7.218;2023-05-20T01:28:32;904.83;;;839.17;;
18274;SDS011;19470;49.322;7.218;2023-05-20T01:30:59;876.13;;;814.55;;
18274;SDS011;19470;49.322;7.218;2023-05-20T01:33:28;936.55;;;867.85;;
18274;SDS011;19470;49.322;7.218;2023-05-20T01:35:56;850.55;;;791.35;;
18274;SDS011;19470;49.322;7.218;2023-05-20T01:38:24;892.80;;;830.22;;
18274;SDS011;19470;49.322;7.218;2023-05-20T01:40:53;894.80;;;831.22;;
18274;SDS011;19470;49.322;7.218;2023-05-20T01:43:22;825.88;;;769.85;;
18274;SDS011;19470;49.322;7.218;2023-05-20T01:45:50;790.47;;;736.22;;
18274;SDS011;19470;49.322;7.218;2023-05-20T01:48:17;846.17;;;787.92;;
18274;SDS011;19470;49.322;7.218;2023-05-20T01:50:43;828.15;;;771.75;;
18274;SDS011;19470;49.322;7.218;2023-05-20T01:53:09;821.70;;;764.78;;
18274;SDS011;19470;49.322;7.218;2023-05-20T01:55:37;860.55;;;800.63;;
18274;SDS011;19470;49.322;7.218;2023-05-20T01:58:05;836.15;;;778.72;;
18274;SDS011;19470;49.322;7.218;2023-05-20T02:00:31;837.72;;;779.72;;
18274;SDS011;19470;49.322;7.218;2023-05-20T02:02:58;767.03;;;714.47;;
18274;SDS011;19470;49.322;7.218;2023-05-20T02:05:25;826.83;;;769.45;;
18274;SDS011;19470;49.322;7.218;2023-05-20T02:07:51;802.83;;;748.85;;
18274;SDS011;19470;49.322;7.218;2023-05-20T02:10:18;798.72;;;743.75;;
18274;SDS011;19470;49.322;7.218;2023-05-20T02:12:44;810.17;;;755.03;;
18274;SDS011;19470;49.322;7.218;2023-05-20T02:15:13;743.55;;;693.72;;
18274;SDS011;19470;49.322;7.218;2023-05-20T02:17:39;735.60;;;686.40;;
18274;SDS011;19470;49.322;7.218;2023-05-20T02:20:07;722.85;;;674.47;;
18274;SDS011;19470;49.322;7.218;2023-05-20T02:22:35;731.35;;;682.92;;
18274;SDS011;19470;49.322;7.218;2023-05-20T02:25:02;791.30;;;737.30;;
18274;SDS011;19470;49.322;7.218;2023-05-20T02:27:29;743.00;;;692.78;;
18274;SDS011;19470;49.322;7.218;2023-05-20T02:29:55;672.03;;;627.25;;
18274;SDS011;19470;49.322;7.218;2023-05-20T02:32:23;715.90;;;667.60;;
18274;SDS011;19470;49.322;7.218;2023-05-20T02:34:52;759.85;;;709.25;;
18274;SDS011;19470;49.322;7.218;2023-05-20T02:37:18;793.65;;;740.38;;
18274;SDS011;19470;49.322;7.218;2023-05-20T02:39:45;749.70;;;699.30;;
18274;SDS011;19470;49.322;7.218;2023-05-20T02:42:11;659.67;;;616.58;;
18274;SDS011;19470;49.322;7.218;2023-05-20T02:44:38;656.40;;;613.70;;
18274;SDS011;19470;49.322;7.218;2023-05-20T02:47:05;557.88;;;522.33;;
18274;SDS011;19470;49.322;7.218;2023-05-20T02:49:33;542.88;;;509.23;;
18274;SDS011;19470;49.322;7.218;2023-05-20T02:51:59;375.80;;;354.10;;
18274;SDS011;19470;49.322;7.218;2023-05-20T02:54:26;398.77;;;375.55;;
18274;SDS011;19470;49.322;7.218;2023-05-20T02:56:52;410.17;;;386.13;;
18274;SDS011;19470;49.322;7.218;2023-05-20T02:59:18;390.38;;;367.88;;
18274;SDS011;19470;49.322;7.218;2023-05-20T03:01:45;480.00;;;451.23;;
18274;SDS011;19470;49.322;7.218;2023-05-20T03:04:12;355.85;;;335.67;;
18274;SDS011;19470;49.322;7.218;2023-05-20T03:06:40;336.13;;;317.02;;
18274;SDS011;19470;49.322;7.218;2023-05-20T03:09:08;315.77;;;297.50;;
18274;SDS011;19470;49.322;7.218;2023-05-20T03:11:35;301.83;;;283.90;;
18274;SDS011;19470;49.322;7.218;2023-05-20T03:14:01;183.80;;;173.35;;
18274;SDS011;19470;49.322;7.218;2023-05-20T03:16:28;207.80;;;196.30;;
18274;SDS011;19470;49.322;7.218;2023-05-20T03:18:54;190.07;;;179.52;;
18274;SDS011;19470;49.322;7.218;2023-05-20T03:21:21;143.48;;;134.77;;
18274;SDS011;19470;49.322;7.218;2023-05-20T03:23:49;107.22;;;101.32;;
18274;SDS011;19470;49.322;7.218;2023-05-20T03:26:16;133.57;;;126.10;;
18274;SDS011;19470;49.322;7.218;2023-05-20T03:28:42;128.90;;;120.95;;
18274;SDS011;19470;49.322;7.218;2023-05-20T03:31:09;70.13;;;65.75;;
18274;SDS011;19470;49.322;7.218;2023-05-20T03:33:35;62.35;;;58.83;;
18274;SDS011;19470;49.322;7.218;2023-05-20T03:36:02;62.90;;;59.38;;
18274;SDS011;19470;49.322;7.218;2023-05-20T03:38:29;64.15;;;60.15;;
18274;SDS011;19470;49.322;7.218;2023-05-20T03:44:13;69.43;;;65.32;;
18274;SDS011;19470;49.322;7.218;2023-05-20T03:46:39;55.70;;;52.08;;
18274;SDS011;19470;49.322;7.218;2023-05-20T03:49:05;99.32;;;92.72;;
18274;SDS011;19470;49.322;7.218;2023-05-20T03:51:32;53.30;;;49.10;;
18274;SDS011;19470;49.322;7.218;2023-05-20T03:53:58;33.20;;;31.15;;
18274;SDS011;19470;49.322;7.218;2023-05-20T03:56:25;38.60;;;36.25;;
18274;SDS011;19470;49.322;7.218;2023-05-20T03:58:51;31.63;;;29.63;;
18274;SDS011;19470;49.322;7.218;2023-05-20T04:01:19;32.70;;;30.73;;
18274;SDS011;19470;49.322;7.218;2023-05-20T04:03:49;33.63;;;31.48;;
18274;SDS011;19470;49.322;7.218;2023-05-20T04:06:16;27.17;;;25.52;;
18274;SDS011;19470;49.322;7.218;2023-05-20T04:08:42;40.60;;;38.15;;
18274;SDS011;19470;49.322;7.218;2023-05-20T04:11:09;27.50;;;25.75;;
18274;SDS011;19470;49.322;7.218;2023-05-20T04:13:36;27.27;;;25.52;;
18274;SDS011;19470;49.322;7.218;2023-05-20T04:16:03;23.60;;;22.15;;
18274;SDS011;19470;49.322;7.218;2023-05-20T04:18:31;19.17;;;17.88;;
18274;SDS011;19470;49.322;7.218;2023-05-20T04:20:57;44.17;;;41.13;;
18274;SDS011;19470;49.322;7.218;2023-05-20T04:23:25;17.90;;;16.65;;
18274;SDS011;19470;49.322;7.218;2023-05-20T04:25:52;20.15;;;18.88;;
18274;SDS011;19470;49.322;7.218;2023-05-20T04:28:19;25.13;;;23.25;;
18274;SDS011;19470;49.322;7.218;2023-05-20T04:30:47;22.77;;;21.45;;
18274;SDS011;19470;49.322;7.218;2023-05-20T04:33:14;19.80;;;18.40;;
18274;SDS011;19470;49.322;7.218;2023-05-20T04:35:43;23.85;;;22.38;;
18274;SDS011;19470;49.322;7.218;2023-05-20T04:38:12;32.25;;;30.15;;
18274;SDS011;19470;49.322;7.218;2023-05-20T04:40:40;18.17;;;16.95;;
18274;SDS011;19470;49.322;7.218;2023-05-20T04:43:06;24.90;;;23.20;;
18274;SDS011;19470;49.322;7.218;2023-05-20T04:45:33;24.92;;;23.08;;
18274;SDS011;19470;49.322;7.218;2023-05-20T04:51:23;24.00;;;22.48;;
18274;SDS011;19470;49.322;7.218;2023-05-20T04:53:50;28.42;;;26.55;;
18274;SDS011;19470;49.322;7.218;2023-05-20T04:56:16;47.75;;;44.97;;
18274;SDS011;19470;49.322;7.218;2023-05-20T04:58:43;42.60;;;40.03;;
18274;SDS011;19470;49.322;7.218;2023-05-20T05:01:10;24.38;;;22.80;;
18274;SDS011;19470;49.322;7.218;2023-05-20T05:03:36;67.78;;;63.63;;
18274;SDS011;19470;49.322;7.218;2023-05-20T05:06:03;30.80;;;28.65;;
18274;SDS011;19470;49.322;7.218;2023-05-20T05:08:30;52.67;;;49.55;;
18274;SDS011;19470;49.322;7.218;2023-05-20T05:10:57;67.93;;;63.75;;
18274;SDS011;19470;49.322;7.218;2023-05-20T05:13:23;40.67;;;38.00;;
18274;SDS011;19470;49.322;7.218;2023-05-20T05:15:56;50.03;;;46.80;;
18274;SDS011;19470;49.322;7.218;2023-05-20T05:18:23;52.97;;;49.80;;
18274;SDS011;19470;49.322;7.218;2023-05-20T05:20:57;391.27;;;357.73;;
18274;SDS011;19470;49.322;7.218;2023-05-20T05:23:24;44.55;;;41.83;;
18274;SDS011;19470;49.322;7.218;2023-05-20T05:25:52;35.38;;;33.20;;
18274;SDS011;19470;49.322;7.218;2023-05-20T05:28:18;40.67;;;38.33;;
18274;SDS011;19470;49.322;7.218;2023-05-20T05:30:45;29.73;;;27.85;;
18274;SDS011;19470;49.322;7.218;2023-05-20T05:36:27;44.72;;;42.05;;
18274;SDS011;19470;49.322;7.218;2023-05-20T05:38:54;44.03;;;41.35;;
18274;SDS011;19470;49.322;7.218;2023-05-20T05:41:22;56.03;;;52.53;;
18274;SDS011;19470;49.322;7.218;2023-05-20T05:43:48;59.55;;;56.00;;
18274;SDS011;19470;49.322;7.218;2023-05-20T05:46:15;81.47;;;76.30;;
18274;SDS011;19470;49.322;7.218;2023-05-20T05:48:41;106.22;;;99.78;;
18274;SDS011;19470;49.322;7.218;2023-05-20T05:51:12;114.85;;;107.75;;
18274;SDS011;19470;49.322;7.218;2023-05-20T05:53:39;139.30;;;130.98;;
18274;SDS011;19470;49.322;7.218;2023-05-20T05:56:06;133.85;;;125.60;;
18274;SDS011;19470;49.322;7.218;2023-05-20T05:58:34;198.95;;;187.65;;
18274;SDS011;19470;49.322;7.218;2023-05-20T06:01:00;185.45;;;174.50;;
18274;SDS011;19470;49.322;7.218;2023-05-20T06:03:27;143.75;;;135.05;;
18274;SDS011;19470;49.322;7.218;2023-05-20T06:05:54;162.25;;;152.18;;
18274;SDS011;19470;49.322;7.218;2023-05-20T06:08:20;354.33;;;333.52;;
18274;SDS011;19470;49.322;7.218;2023-05-20T06:10:47;385.75;;;362.95;;
18274;SDS011;19470;49.322;7.218;2023-05-20T06:13:14;221.30;;;207.93;;
18274;SDS011;19470;49.322;7.218;2023-05-20T06:15:42;215.50;;;202.98;;
18274;SDS011;19470;49.322;7.218;2023-05-20T06:18:10;411.52;;;386.52;;
18274;SDS011;19470;49.322;7.218;2023-05-20T06:20:37;281.10;;;264.17;;
18274;SDS011;19470;49.322;7.218;2023-05-20T06:23:03;481.02;;;452.23;;
18274;SDS011;19470;49.322;7.218;2023-05-20T06:25:30;421.00;;;395.17;;
18274;SDS011;19470;49.322;7.218;2023-05-20T06:27:56;580.40;;;544.13;;
18274;SDS011;19470;49.322;7.218;2023-05-20T06:30:23;555.00;;;520.67;;
18274;SDS011;19470;49.322;7.218;2023-05-20T06:32:51;559.08;;;524.13;;
18274;SDS011;19470;49.322;7.218;2023-05-20T06:35:17;635.45;;;593.28;;
18274;SDS011;19470;49.322;7.218;2023-05-20T06:37:44;506.88;;;475.08;;
18274;SDS011;19470;49.322;7.218;2023-05-20T06:40:11;850.65;;;789.58;;
18274;SDS011;19470;49.322;7.218;2023-05-20T06:42:37;553.80;;;519.08;;
18274;SDS011;19470;49.322;7.218;2023-05-20T06:45:05;615.90;;;576.28;;
18274;SDS011;19470;49.322;7.218;2023-05-20T06:47:32;759.25;;;705.05;;
18274;SDS011;19470;49.322;7.218;2023-05-20T06:49:59;522.42;;;490.40;;
18274;SDS011;19470;49.322;7.218;2023-05-20T06:52:26;676.58;;;631.85;;
18274;SDS011;19470;49.322;7.218;2023-05-20T06:54:52;551.05;;;516.58;;
18274;SDS011;19470;49.322;7.218;2023-05-20T06:57:19;574.75;;;538.28;;
18274;SDS011;19470;49.322;7.218;2023-05-20T06:59:46;753.92;;;701.85;;
18274;SDS011;19470;49.322;7.218;2023-05-20T07:02:12;725.65;;;676.22;;
18274;SDS011;19470;49.322;7.218;2023-05-20T07:04:39;608.67;;;569.08;;
18274;SDS011;19470;49.322;7.218;2023-05-20T07:07:07;701.00;;;654.33;;
18274;SDS011;19470;49.322;7.218;2023-05-20T07:09:33;801.80;;;746.13;;
18274;SDS011;19470;49.322;7.218;2023-05-20T07:12:00;800.83;;;745.10;;
18274;SDS011;19470;49.322;7.218;2023-05-20T07:17:49;958.45;;;881.90;;
18274;SDS011;19470;49.322;7.218;2023-05-20T07:20:15;909.30;;;843.00;;
18274;SDS011;19470;49.322;7.218;2023-05-20T07:22:43;880.10;;;816.40;;
18274;SDS011;19470;49.322;7.218;2023-05-20T07:25:11;935.50;;;866.65;;
18274;SDS011;19470;49.322;7.218;2023-05-20T07:27:38;923.30;;;855.25;;
18274;SDS011;19470;49.322;7.218;2023-05-20T07:30:05;899.85;;;835.30;;
18274;SDS011;19470;49.322;7.218;2023-05-20T07:32:33;888.92;;;824.97;;
18274;SDS011;19470;49.322;7.218;2023-05-20T07:35:00;909.30;;;843.45;;
18274;SDS011;19470;49.322;7.218;2023-05-20T07:37:26;683.00;;;637.53;;
18274;SDS011;19470;49.322;7.218;2023-05-20T07:39:54;644.17;;;602.00;;
18274;SDS011;19470;49.322;7.218;2023-05-20T07:42:21;624.53;;;584.10;;
18274;SDS011;19470;49.322;7.218;2023-05-20T07:44:47;628.45;;;587.53;;
18274;SDS011;19470;49.322;7.218;2023-05-20T07:47:14;510.25;;;478.60;;
18274;SDS011;19470;49.322;7.218;2023-05-20T07:49:40;566.50;;;530.65;;
18274;SDS011;19470;49.322;7.218;2023-05-20T07:52:08;510.60;;;478.65;;
18274;SDS011;19470;49.322;7.218;2023-05-20T07:54:34;518.67;;;486.20;;
18274;SDS011;19470;49.322;7.218;2023-05-20T07:57:03;706.25;;;657.58;;
18274;SDS011;19470;49.322;7.218;2023-05-20T07:59:29;471.10;;;442.45;;
18274;SDS011;19470;49.322;7.218;2023-05-20T08:01:56;616.25;;;572.40;;
18274;SDS011;19470;49.322;7.218;2023-05-20T08:04:23;477.08;;;447.27;;
18274;SDS011;19470;49.322;7.218;2023-05-20T08:06:51;436.38;;;409.60;;
18274;SDS011;19470;49.322;7.218;2023-05-20T08:09:18;475.77;;;446.55;;
18274;SDS011;19470;49.322;7.218;2023-05-20T08:11:45;564.30;;;528.80;;
18274;SDS011;19470;49.322;7.218;2023-05-20T08:14:14;421.88;;;396.02;;
18274;SDS011;19470;49.322;7.218;2023-05-20T08:16:41;393.48;;;369.05;;
18274;SDS011;19470;49.322;7.218;2023-05-20T08:19:07;361.30;;;339.60;;
18274;SDS011;19470;49.322;7.218;2023-05-20T08:21:34;325.33;;;304.65;;
18274;SDS011;19470;49.322;7.218;2023-05-20T08:24:00;342.98;;;321.88;;
18274;SDS011;19470;49.322;7.218;2023-05-20T08:26:27;426.02;;;400.25;;
18274;SDS011;19470;49.322;7.218;2023-05-20T08:28:53;490.40;;;459.55;;
18274;SDS011;19470;49.322;7.218;2023-05-20T08:31:21;496.00;;;463.65;;
18274;SDS011;19470;49.322;7.218;2023-05-20T08:33:48;474.40;;;443.13;;
18274;SDS011;19470;49.322;7.218;2023-05-20T08:36:15;361.60;;;339.80;;
18274;SDS011;19470;49.322;7.218;2023-05-20T08:38:43;201.15;;;188.38;;
18274;SDS011;19470;49.322;7.218;2023-05-20T08:41:10;174.32;;;163.02;;
18274;SDS011;19470;49.322;7.218;2023-05-20T08:43:36;266.58;;;250.23;;
18274;SDS011;19470;49.322;7.218;2023-05-20T08:46:03;260.05;;;244.02;;
18274;SDS011;19470;49.322;7.218;2023-05-20T08:48:32;291.70;;;272.60;;
18274;SDS011;19470;49.322;7.218;2023-05-20T08:50:58;398.00;;;373.63;;
18274;SDS011;19470;49.322;7.218;2023-05-20T08:53:28;432.88;;;406.40;;
18274;SDS011;19470;49.322;7.218;2023-05-20T08:55:56;300.48;;;281.20;;
18274;SDS011;19470;49.322;7.218;2023-05-20T08:58:27;425.88;;;399.58;;
18274;SDS011;19470;49.322;7.218;2023-05-20T09:00:55;566.03;;;529.08;;
18274;SDS011;19470;49.322;7.218;2023-05-20T09:03:22;449.17;;;421.27;;
18274;SDS011;19470;49.322;7.218;2023-05-20T09:05:51;420.92;;;394.38;;
18274;SDS011;19470;49.322;7.218;2023-05-20T09:08:18;305.90;;;287.27;;
18274;SDS011;19470;49.322;7.218;2023-05-20T09:10:50;485.65;;;455.58;;
18274;SDS011;19470;49.322;7.218;2023-05-20T09:13:17;542.13;;;508.13;;
18274;SDS011;19470;49.322;7.218;2023-05-20T09:15:44;551.92;;;514.53;;
18274;SDS011;19470;49.322;7.218;2023-05-20T09:18:11;557.75;;;522.33;;
18274;SDS011;19470;49.322;7.218;2023-05-20T09:20:38;581.03;;;543.33;;
18274;SDS011;19470;49.322;7.218;2023-05-20T09:23:07;647.80;;;605.30;;
18274;SDS011;19470;49.322;7.218;2023-05-20T09:25:35;682.88;;;637.13;;
18274;SDS011;19470;49.322;7.218;2023-05-20T09:28:03;706.15;;;658.78;;
18274;SDS011;19470;49.322;7.218;2023-05-20T09:30:30;745.03;;;694.03;;
18274;SDS011;19470;49.322;7.218;2023-05-20T09:32:58;629.50;;;588.33;;
18274;SDS011;19470;49.322;7.218;2023-05-20T09:35:25;509.85;;;478.63;;
18274;SDS011;19470;49.322;7.218;2023-05-20T09:37:54;527.47;;;494.83;;
18274;SDS011;19470;49.322;7.218;2023-05-20T09:40:23;585.80;;;548.40;;
18274;SDS011;19470;49.322;7.218;2023-05-20T09:42:58;598.63;;;560.65;;
18274;SDS011;19470;49.322;7.218;2023-05-20T09:45:28;498.73;;;467.98;;
18274;SDS011;19470;49.322;7.218;2023-05-20T09:47:54;425.58;;;399.35;;
18274;SDS011;19470;49.322;7.218;2023-05-20T09:50:23;389.63;;;364.75;;
18274;SDS011;19470;49.322;7.218;2023-05-20T09:52:50;407.92;;;383.17;;
18274;SDS011;19470;49.322;7.218;2023-05-20T09:55:18;869.70;;;806.90;;
18274;SDS011;19470;49.322;7.218;2023-05-20T09:57:47;855.38;;;793.63;;
18274;SDS011;19470;49.322;7.218;2023-05-20T10:00:14;864.05;;;801.13;;
18274;SDS011;19470;49.322;7.218;2023-05-20T10:02:42;872.50;;;809.00;;
18274;SDS011;19470;49.322;7.218;2023-05-20T10:05:12;892.55;;;825.97;;
18274;SDS011;19470;49.322;7.218;2023-05-20T10:07:48;879.42;;;815.05;;
18274;SDS011;19470;49.322;7.218;2023-05-20T10:10:26;819.72;;;760.70;;
18274;SDS011;19470;49.322;7.218;2023-05-20T10:13:01;800.90;;;744.60;;
18274;SDS011;19470;49.322;7.218;2023-05-20T10:15:43;869.20;;;805.00;;
18274;SDS011;19470;49.322;7.218;2023-05-20T10:21:41;873.13;;;809.55;;
18274;SDS011;19470;49.322;7.218;2023-05-20T10:24:08;966.58;;;892.83;;
18274;SDS011;19470;49.322;7.218;2023-05-20T10:26:35;966.50;;;892.67;;
18274;SDS011;19470;49.322;7.218;2023-05-20T10:29:14;1060.32;;;969.55;;
18274;SDS011;19470;49.322;7.218;2023-05-20T10:31:44;1014.67;;;933.88;;
18274;SDS011;19470;49.322;7.218;2023-05-20T10:34:14;924.22;;;855.67;;
18274;SDS011;19470;49.322;7.218;2023-05-20T10:36:44;1015.40;;;934.80;;
18274;SDS011;19470;49.322;7.218;2023-05-20T10:39:14;936.97;;;866.17;;
18274;SDS011;19470;49.322;7.218;2023-05-20T10:41:41;966.00;;;890.90;;
18274;SDS011;19470;49.322;7.218;2023-05-20T10:44:08;960.95;;;886.33;;
18274;SDS011;19470;49.322;7.218;2023-05-20T10:46:36;964.53;;;890.00;;
18274;SDS011;19470;49.322;7.218;2023-05-20T10:49:03;933.00;;;862.72;;
18274;SDS011;19470;49.322;7.218;2023-05-20T10:51:30;894.85;;;829.25;;
18274;SDS011;19470;49.322;7.218;2023-05-20T10:54:01;916.20;;;848.38;;
18274;SDS011;19470;49.322;7.218;2023-05-20T10:56:27;970.67;;;896.33;;
18274;SDS011;19470;49.322;7.218;2023-05-20T10:58:54;914.30;;;846.10;;
18274;SDS011;19470;49.322;7.218;2023-05-20T11:01:22;1010.35;;;925.90;;
18274;SDS011;19470;49.322;7.218;2023-05-20T11:03:51;981.70;;;906.22;;
18274;SDS011;19470;49.322;7.218;2023-05-20T11:06:24;953.78;;;881.10;;
18274;SDS011;19470;49.322;7.218;2023-05-20T11:08:52;1025.97;;;943.03;;
18274;SDS011;19470;49.322;7.218;2023-05-20T11:11:19;1031.82;;;947.67;;
18274;SDS011;19470;49.322;7.218;2023-05-20T11:13:49;991.70;;;914.13;;
18274;SDS011;19470;49.322;7.218;2023-05-20T11:16:16;973.38;;;898.92;;
18274;SDS011;19470;49.322;7.218;2023-05-20T11:18:42;978.35;;;902.78;;
18274;SDS011;19470;49.322;7.218;2023-05-20T11:21:10;1004.33;;;925.95;;
18274;SDS011;19470;49.322;7.218;2023-05-20T11:23:37;1018.20;;;936.40;;
18274;SDS011;19470;49.322;7.218;2023-05-20T11:26:04;1028.32;;;945.55;;
18274;SDS011;19470;49.322;7.218;2023-05-20T11:28:30;1010.70;;;930.25;;
18274;SDS011;19470;49.322;7.218;2023-05-20T11:30:58;996.70;;;915.50;;
18274;SDS011;19470;49.322;7.218;2023-05-20T11:33:25;990.45;;;912.70;;
18274;SDS011;19470;49.322;7.218;2023-05-20T11:35:52;972.55;;;896.58;;
18274;SDS011;19470;49.322;7.218;2023-05-20T11:38:20;924.97;;;855.10;;
18274;SDS011;19470;49.322;7.218;2023-05-20T11:40:50;863.70;;;800.88;;
18274;SDS011;19470;49.322;7.218;2023-05-20T11:43:17;873.40;;;807.28;;
18274;SDS011;19470;49.322;7.218;2023-05-20T11:45:45;917.67;;;846.60;;
18274;SDS011;19470;49.322;7.218;2023-05-20T11:48:12;792.42;;;736.83;;
18274;SDS011;19470;49.322;7.218;2023-05-20T11:50:40;819.60;;;761.30;;
18274;SDS011;19470;49.322;7.218;2023-05-20T11:53:08;793.10;;;737.28;;
18274;SDS011;19470;49.322;7.218;2023-05-20T11:55:44;756.75;;;703.72;;
18274;SDS011;19470;49.322;7.218;2023-05-20T11:58:14;821.78;;;763.10;;
18274;SDS011;19470;49.322;7.218;2023-05-20T12:00:41;790.17;;;735.08;;
18274;SDS011;19470;49.322;7.218;2023-05-20T12:03:07;831.53;;;771.85;;
18274;SDS011;19470;49.322;7.218;2023-05-20T12:05:35;933.35;;;863.30;;
18274;SDS011;19470;49.322;7.218;2023-05-20T12:08:02;1024.38;;;941.92;;
18274;SDS011;19470;49.322;7.218;2023-05-20T12:10:29;1003.75;;;924.60;;
18274;SDS011;19470;49.322;7.218;2023-05-20T12:12:57;952.28;;;879.75;;
18274;SDS011;19470;49.322;7.218;2023-05-20T12:15:24;780.95;;;725.60;;
18274;SDS011;19470;49.322;7.218;2023-05-20T12:18:08;845.50;;;782.70;;
18274;SDS011;19470;49.322;7.218;2023-05-20T12:20:35;877.30;;;813.85;;
18274;SDS011;19470;49.322;7.218;2023-05-20T12:23:02;828.88;;;769.78;;
18274;SDS011;19470;49.322;7.218;2023-05-20T12:25:28;671.90;;;623.92;;
18274;SDS011;19470;49.322;7.218;2023-05-20T12:27:55;369.75;;;346.77;;
18274;SDS011;19470;49.322;7.218;2023-05-20T12:30:23;381.05;;;357.48;;
18274;SDS011;19470;49.322;7.218;2023-05-20T12:32:50;430.52;;;403.20;;
18274;SDS011;19470;49.322;7.218;2023-05-20T12:35:18;404.35;;;379.55;;
18274;SDS011;19470;49.322;7.218;2023-05-20T12:37:52;487.33;;;454.05;;
18274;SDS011;19470;49.322;7.218;2023-05-20T12:40:18;503.30;;;471.48;;
18274;SDS011;19470;49.322;7.218;2023-05-20T12:42:45;565.05;;;526.08;;
18274;SDS011;19470;49.322;7.218;2023-05-20T12:45:12;398.48;;;374.15;;
18274;SDS011;19470;49.322;7.218;2023-05-20T12:47:39;404.58;;;379.23;;
18274;SDS011;19470;49.322;7.218;2023-05-20T12:50:06;400.92;;;375.80;;
18274;SDS011;19470;49.322;7.218;2023-05-20T12:52:33;508.77;;;477.05;;
18274;SDS011;19470;49.322;7.218;2023-05-20T12:54:59;536.90;;;502.55;;
18274;SDS011;19470;49.322;7.218;2023-05-20T12:57:29;505.20;;;473.70;;
18274;SDS011;19470;49.322;7.218;2023-05-20T12:59:55;431.25;;;404.92;;
18274;SDS011;19470;49.322;7.218;2023-05-20T13:02:22;417.27;;;391.35;;
18274;SDS011;19470;49.322;7.218;2023-05-20T13:04:50;395.63;;;371.38;;
18274;SDS011;19470;49.322;7.218;2023-05-20T13:07:16;478.65;;;447.35;;
18274;SDS011;19470;49.322;7.218;2023-05-20T13:09:43;520.63;;;487.42;;
18274;SDS011;19470;49.322;7.218;2023-05-20T13:12:09;527.88;;;494.92;;
18274;SDS011;19470;49.322;7.218;2023-05-20T13:14:36;508.17;;;476.35;;
18274;SDS011;19470;49.322;7.218;2023-05-20T13:17:02;400.58;;;375.80;;
18274;SDS011;19470;49.322;7.218;2023-05-20T13:19:29;483.67;;;452.30;;
18274;SDS011;19470;49.322;7.218;2023-05-20T13:21:57;463.92;;;434.98;;
18274;SDS011;19470;49.322;7.218;2023-05-20T13:24:23;412.65;;;386.60;;
18274;SDS011;19470;49.322;7.218;2023-05-20T13:26:50;370.83;;;347.20;;
18274;SDS011;19470;49.322;7.218;2023-05-20T13:29:17;391.08;;;365.98;;
18274;SDS011;19470;49.322;7.218;2023-05-20T13:31:43;516.60;;;483.80;;
18274;SDS011;19470;49.322;7.218;2023-05-20T13:34:09;453.13;;;424.75;;
18274;SDS011;19470;49.322;7.218;2023-05-20T13:36:36;451.75;;;423.58;;
18274;SDS011;19470;49.322;7.218;2023-05-20T13:39:04;415.83;;;389.73;;
18274;SDS011;19470;49.322;7.218;2023-05-20T13:41:31;505.27;;;473.33;;
18274;SDS011;19470;49.322;7.218;2023-05-20T13:43:57;581.75;;;544.30;;
18274;SDS011;19470;49.322;7.218;2023-05-20T13:46:24;482.42;;;452.30;;
18274;SDS011;19470;49.322;7.218;2023-05-20T13:48:50;514.05;;;481.90;;
18274;SDS011;19470;49.322;7.218;2023-05-20T13:51:17;538.47;;;503.85;;
18274;SDS011;19470;49.322;7.218;2023-05-20T13:53:43;498.23;;;466.77;;
18274;SDS011;19470;49.322;7.218;2023-05-20T13:56:11;436.23;;;408.25;;
18274;SDS011;19470;49.322;7.218;2023-05-20T13:58:37;447.17;;;419.42;;
18274;SDS011;19470;49.322;7.218;2023-05-20T14:01:04;503.35;;;471.73;;
18274;SDS011;19470;49.322;7.218;2023-05-20T14:03:31;456.05;;;427.33;;
18274;SDS011;19470;49.322;7.218;2023-05-20T14:05:58;455.23;;;426.65;;
18274;SDS011;19470;49.322;7.218;2023-05-20T14:08:25;455.63;;;427.15;;
18274;SDS011;19470;49.322;7.218;2023-05-20T14:10:51;419.42;;;393.50;;
18274;SDS011;19470;49.322;7.218;2023-05-20T14:13:20;507.75;;;475.08;;
18274;SDS011;19470;49.322;7.218;2023-05-20T14:15:47;475.70;;;445.88;;
18274;SDS011;19470;49.322;7.218;2023-05-20T14:18:14;462.92;;;434.10;;